Weather reports worldwide

Advertisment
Desenzano, Italy (16089): temperature & dewpoint: 20.05.2019 00:00:00 - 26.05.2019 00:00:00 (CEST)Desenzano, Italy (16089): wind speed: 20.05.2019 00:00:00 - 26.05.2019 00:00:00 (CEST)Desenzano, Italy (16089): wind direction: 20.05.2019 00:00:00 - 26.05.2019 00:00:00 (CEST)Desenzano, Italy (16089): reduced air pressure: 20.05.2019 00:00:00 - 26.05.2019 00:00:00 (CEST)
Date & Time tt [°C] td [°C] ff [km/h] ff [kn] dd ppp [hPa]
26.05.2019 00:00:00 - - - - - -
25.05.2019 23:00:00 18,6 17,2 5 3 NW 1015,3
25.05.2019 22:00:00 19,1 16,6 0 0 N 1015,2
25.05.2019 21:00:00 19,8 16,0 8 4 ESE 1014,9
25.05.2019 20:00:00 21,5 17,2 4 2 S 1014,4
25.05.2019 19:00:00 22,5 17,8 4 2 E 1013,6
25.05.2019 18:00:00 21,8 17,1 11 6 ENE 1013,0
25.05.2019 17:00:00 20,8 18,3 0 0 N 1013,0
25.05.2019 16:00:00 20,8 18,3 4 2 WNW 1013,3
25.05.2019 15:00:00 19,8 16,8 0 0 N 1013,8
25.05.2019 14:00:00 18,8 17,1 9 5 NNW 1014,3
25.05.2019 13:00:00 18,6 17,4 16 9 WNW 1015,2
25.05.2019 12:00:00 18,9 16,6 24 13 NNW 1015,0
25.05.2019 11:00:00 18,1 16,4 24 13 N 1014,9
25.05.2019 10:00:00 17,9 17,7 13 7 N 1015,0
25.05.2019 09:00:00 18,0 17,5 15 8 N 1014,5
25.05.2019 08:00:00 18,3 17,9 0 0 N 1014,0
25.05.2019 07:00:00 17,7 17,6 2 1 ESE 1013,2
25.05.2019 06:00:00 17,2 17,0 2 1 S 1012,7
25.05.2019 05:00:00 17,8 17,1 0 0 N 1012,4
25.05.2019 04:00:00 18,8 18,4 4 2 NNW 1012,4
25.05.2019 03:00:00 18,6 17,0 0 0 N 1012,5
25.05.2019 02:00:00 19,4 17,5 0 0 N 1012,7
25.05.2019 01:00:00 19,2 17,1 0 0 N 1012,5
25.05.2019 00:00:00 19,8 17,9 0 0 N 1012,3
24.05.2019 23:00:00 19,9 17,8 0 0 N 1012,0
24.05.2019 22:00:00 20,9 18,4 0 0 N 1011,8
24.05.2019 21:00:00 21,2 18,7 0 0 N 1011,5
24.05.2019 20:00:00 21,4 19,1 13 7 WNW 1011,3
24.05.2019 19:00:00 22,1 19,6 11 6 NNW 1011,2
24.05.2019 18:00:00 24,0 20,3 4 2 ENE 1011,0
24.05.2019 17:00:00 23,3 20,8 4 2 NNE 1011,5
24.05.2019 16:00:00 23,2 20,5 0 0 N 1011,9
24.05.2019 15:00:00 22,1 20,3 4 2 WNW 1012,3
24.05.2019 14:00:00 22,1 19,6 9 5 N 1012,8
24.05.2019 13:00:00 21,1 19,7 5 3 NNE 1013,5
24.05.2019 12:00:00 21,3 18,8 5 3 N 1013,8
24.05.2019 11:00:00 21,9 19,0 4 2 NNE 1014,1
24.05.2019 10:00:00 20,4 16,6 0 0 N 1014,3
24.05.2019 09:00:00 20,3 18,0 0 0 N 1014,2
24.05.2019 08:00:00 19,3 18,9 0 0 N 1014,1
24.05.2019 07:00:00 17,7 17,6 0 0 N 1013,9
24.05.2019 06:00:00 17,3 17,2 0 0 N 1013,8
24.05.2019 05:00:00 16,9 16,5 0 0 N 1013,7
24.05.2019 04:00:00 17,4 16,9 0 0 N 1013,9
24.05.2019 03:00:00 17,8 17,1 0 0 N 1014,0
24.05.2019 02:00:00 18,2 17,2 0 0 N 1014,1
24.05.2019 01:00:00 18,3 16,9 0 0 N 1014,1
24.05.2019 00:00:00 18,8 16,5 0 0 N 1014,0
23.05.2019 23:00:00 19,7 16,1 0 0 N 1014,0
23.05.2019 22:00:00 21,5 16,2 0 0 N 1013,5
23.05.2019 21:00:00 23,7 16,9 0 0 N 1013,0
23.05.2019 20:00:00 24,8 17,0 4 2 SSE 1012,6
23.05.2019 19:00:00 25,1 15,9 5 3 S 1012,6
23.05.2019 18:00:00 25,5 16,8 5 3 S 1012,9
23.05.2019 17:00:00 25,2 16,8 4 2 SE 1013,3
23.05.2019 16:00:00 25,5 16,3 4 2 SSW 1013,7
23.05.2019 15:00:00 25,8 17,1 4 2 SE 1014,3
23.05.2019 14:00:00 24,9 18,0 5 3 SSW 1014,8
23.05.2019 13:00:00 22,3 17,8 4 2 N 1015,5
23.05.2019 12:00:00 19,7 16,1 4 2 N 1016,0
23.05.2019 11:00:00 19,0 15,0 0 0 N 1016,1
23.05.2019 10:00:00 17,7 15,1 4 2 N 1016,5
23.05.2019 09:00:00 17,6 16,1 9 5 NNW 1016,5
23.05.2019 08:00:00 17,1 17,0 0 0 N 1016,4
23.05.2019 07:00:00 15,9 15,8 0 0 N 1016,2
23.05.2019 06:00:00 16,1 16,0 8 4 NNW 1015,9
23.05.2019 05:00:00 16,6 16,5 0 0 N 1016,0
23.05.2019 04:00:00 16,7 16,5 0 0 N 1016,1
23.05.2019 03:00:00 17,5 16,6 0 0 N 1015,9
23.05.2019 02:00:00 18,6 17,4 0 0 N 1016,3
23.05.2019 01:00:00 18,6 16,7 2 1 NE 1016,0
23.05.2019 00:00:00 18,7 16,2 0 0 N 1015,7
22.05.2019 23:00:00 18,8 17,1 8 4 NNW 1015,4
22.05.2019 22:00:00 19,8 17,9 4 2 ENE 1014,6
22.05.2019 21:00:00 20,0 17,0 0 0 N 1013,7
22.05.2019 20:00:00 20,5 17,3 0 0 N 1013,5
22.05.2019 19:00:00 20,6 17,0 2 1 NNW 1013,2
22.05.2019 18:00:00 21,2 17,7 4 2 NE 1013,0
22.05.2019 17:00:00 22,0 18,3 5 3 ENE 1013,2
22.05.2019 16:00:00 21,9 19,6 8 4 NE 1013,0
22.05.2019 15:00:00 20,0 16,2 13 7 NNE 1013,5
22.05.2019 14:00:00 24,8 17,7 5 3 SSW 1013,5
22.05.2019 13:00:00 23,3 18,1 4 2 SSW 1014,0
22.05.2019 12:00:00 22,2 17,7 4 2 NW 1014,1
22.05.2019 11:00:00 20,6 16,1 4 2 WSW 1014,0
22.05.2019 10:00:00 18,8 17,2 4 2 SSE 1014,0
22.05.2019 09:00:00 16,8 16,7 0 0 N 1013,9
22.05.2019 08:00:00 16,2 16,1 2 1 SSW 1013,9
22.05.2019 07:00:00 15,0 14,9 0 0 N 1013,5
22.05.2019 06:00:00 14,8 14,7 2 1 SSW 1013,2
22.05.2019 05:00:00 14,7 14,6 2 1 SSE 1013,0
22.05.2019 04:00:00 15,0 14,9 0 0 N 1012,9
22.05.2019 03:00:00 15,5 15,4 0 0 N 1012,7
22.05.2019 02:00:00 16,2 16,1 0 0 N 1012,3
22.05.2019 01:00:00 16,7 16,6 0 0 N 1012,5
22.05.2019 00:00:00 17,1 17,0 0 0 N 1012,7
21.05.2019 23:00:00 17,5 17,4 0 0 N 1012,6
21.05.2019 22:00:00 18,0 17,9 0 0 N 1011,7
21.05.2019 21:00:00 17,8 16,8 9 5 N 1011,3
21.05.2019 20:00:00 18,6 17,4 2 1 N 1010,6
21.05.2019 19:00:00 19,0 16,4 8 4 NNE 1009,7
21.05.2019 18:00:00 20,1 16,5 0 0 N 1009,2
21.05.2019 17:00:00 19,1 16,1 0 0 N 1009,2
21.05.2019 16:00:00 18,8 16,9 9 5 N 1009,1
21.05.2019 15:00:00 18,4 16,5 9 5 NNE 1009,0
21.05.2019 14:00:00 17,7 16,7 4 2 NE 1008,8
21.05.2019 13:00:00 17,2 16,3 0 0 N 1008,7
21.05.2019 12:00:00 17,4 17,3 0 0 N 1008,6
21.05.2019 11:00:00 15,8 15,6 0 0 N 1008,4
21.05.2019 10:00:00 15,8 15,6 0 0 N 1008,0
21.05.2019 09:00:00 16,3 15,4 0 0 N 1007,5
21.05.2019 08:00:00 15,5 14,8 0 0 N 1007,2
21.05.2019 07:00:00 14,8 14,7 0 0 N 1006,8
21.05.2019 06:00:00 14,6 14,5 2 1 SW 1006,7
21.05.2019 05:00:00 14,4 14,3 2 1 SW 1006,5
21.05.2019 04:00:00 14,8 14,7 2 1 SSW 1006,4
21.05.2019 03:00:00 15,0 14,9 4 2 S 1006,5
21.05.2019 02:00:00 15,1 15,0 4 2 S 1006,6
21.05.2019 01:00:00 15,3 15,2 2 1 SSE 1006,9
21.05.2019 00:00:00 15,9 15,8 0 0 N 1007,1
20.05.2019 23:00:00 15,9 15,8 0 0 N 1006,9
20.05.2019 22:00:00 15,9 15,8 0 0 N 1006,7
20.05.2019 21:00:00 16,1 15,9 0 0 N 1006,3
20.05.2019 20:00:00 16,7 16,3 0 0 N 1006,3
20.05.2019 19:00:00 17,3 16,9 0 0 N 1006,2
20.05.2019 18:00:00 17,1 15,9 4 2 SW 1006,1
20.05.2019 17:00:00 17,4 16,0 8 4 SW 1006,0
20.05.2019 16:00:00 17,8 16,1 4 2 S 1005,9
20.05.2019 15:00:00 17,8 15,7 4 2 SW 1005,8
20.05.2019 14:00:00 18,1 16,5 8 4 WSW 1005,5
20.05.2019 13:00:00 18,3 16,2 8 4 SW 1005,1
20.05.2019 12:00:00 18,4 15,9 8 4 SW 1004,9
20.05.2019 11:00:00 18,4 18,3 5 3 SSW 1004,7
20.05.2019 10:00:00 16,5 16,4 4 2 SSW 1004,5
20.05.2019 09:00:00 15,8 15,7 5 3 SSW 1004,2
20.05.2019 08:00:00 15,0 14,9 4 2 SSW 1004,0
20.05.2019 07:00:00 14,6 14,5 0 0 N 1003,9
20.05.2019 06:00:00 14,2 14,1 0 0 N 1003,8
20.05.2019 05:00:00 14,3 14,2 0 0 N 1004,1
20.05.2019 04:00:00 14,4 14,3 5 3 NW 1004,4
20.05.2019 03:00:00 14,7 14,6 0 0 N 1004,4
20.05.2019 02:00:00 14,6 14,5 0 0 N 1004,6
20.05.2019 01:00:00 15,0 14,9 0 0 N 1004,9
20.05.2019 00:00:00 15,2 15,1 0 0 N 1005,1

tt = temperature
td = dewpoint
ff = wind speed
dd = wind direction
ppp = reduced air pressure

Next stations